createdAt,value
2018-12-16T00:03:54.132Z,37.40
2018-12-16T00:06:23.236Z,48.13
2018-12-16T00:08:53.079Z,34.53
2018-12-16T00:14:00.956Z,32.07
2018-12-16T00:16:30.071Z,32.03
2018-12-16T00:18:59.171Z,31.07
2018-12-16T00:24:06.976Z,33.20
2018-12-16T00:26:53.295Z,29.43
2018-12-16T00:29:22.735Z,31.05
2018-12-16T00:31:51.999Z,42.75
2018-12-16T00:34:21.132Z,30.90
2018-12-16T00:36:50.398Z,38.53
2018-12-16T00:39:21.117Z,33.67
2018-12-16T00:41:50.331Z,34.08
2018-12-16T00:44:19.515Z,31.40
2018-12-16T00:46:48.630Z,33.53
2018-12-16T00:51:56.950Z,34.80
2018-12-16T00:57:05.923Z,38.97
2018-12-16T00:59:35.188Z,36.73
2018-12-16T01:04:55.632Z,43.57
2018-12-16T01:07:24.892Z,38.33
2018-12-16T01:09:54.215Z,33.27
2018-12-16T01:15:04.324Z,35.90
2018-12-16T01:17:33.468Z,38.95
2018-12-16T01:22:43.504Z,45.90
2018-12-16T01:27:50.152Z,51.87
2018-12-16T01:30:19.379Z,30.25
2018-12-16T01:35:29.391Z,33.27
2018-12-16T01:37:58.463Z,33.57
2018-12-16T01:40:27.679Z,40.58
2018-12-16T01:42:56.928Z,56.10
2018-12-16T01:48:05.297Z,44.20
2018-12-16T01:50:34.437Z,40.45
2018-12-16T01:53:03.668Z,42.20
2018-12-16T01:58:11.944Z,54.97
2018-12-16T02:03:20.312Z,41.43
2018-12-16T02:08:28.564Z,36.43
2018-12-16T02:10:57.712Z,49.98
2018-12-16T02:13:26.902Z,42.73
2018-12-16T02:15:56.035Z,53.40
2018-12-16T02:18:25.167Z,50.98
2018-12-16T02:20:54.298Z,42.10
2018-12-16T02:23:23.405Z,34.70
2018-12-16T02:25:52.660Z,56.33
2018-12-16T02:28:21.740Z,47.37
2018-12-16T02:33:30.240Z,39.37
2018-12-16T02:35:59.789Z,48.93
2018-12-16T02:38:28.985Z,45.30
2018-12-16T02:40:58.212Z,37.90
2018-12-16T02:43:27.281Z,34.05
2018-12-16T02:45:56.359Z,44.17
2018-12-16T02:48:25.557Z,38.63
2018-12-16T02:50:55.596Z,31.73
2018-12-16T02:56:02.996Z,26.10
2018-12-16T02:58:32.250Z,35.07
2018-12-16T03:03:40.731Z,23.77
2018-12-16T03:06:09.984Z,21.10
2018-12-16T03:11:21.331Z,33.00
2018-12-16T03:13:50.559Z,28.85
2018-12-16T03:16:20.708Z,35.15
2018-12-16T03:18:49.836Z,32.50
2018-12-16T03:21:19.016Z,33.97
2018-12-16T03:23:48.253Z,30.87
2018-12-16T03:28:57.041Z,25.93
2018-12-16T03:31:26.881Z,28.23
2018-12-16T03:33:56.124Z,25.43
2018-12-16T03:36:25.331Z,31.68
2018-12-16T03:38:54.504Z,27.93
2018-12-16T03:41:23.603Z,30.90
2018-12-16T03:43:52.640Z,29.43
2018-12-16T03:46:21.695Z,34.07
2018-12-16T03:48:50.798Z,32.60
2018-12-16T03:51:31.940Z,30.13
2018-12-16T03:54:02.175Z,35.43
2018-12-16T03:56:31.319Z,39.63
2018-12-16T03:59:18.871Z,31.23
2018-12-16T04:04:32.764Z,36.43
2018-12-16T04:07:01.983Z,35.73
2018-12-16T04:09:31.143Z,41.33
2018-12-16T04:12:00.363Z,41.88
2018-12-16T04:14:29.443Z,34.88
2018-12-16T04:16:58.601Z,32.63
2018-12-16T04:19:27.918Z,32.48
2018-12-16T04:21:57.180Z,53.98
2018-12-16T04:24:26.325Z,40.63
2018-12-16T04:26:55.453Z,46.53
2018-12-16T04:29:24.637Z,39.25
2018-12-16T04:31:53.785Z,42.43
2018-12-16T04:34:22.969Z,41.87
2018-12-16T04:36:52.099Z,36.15
2018-12-16T04:39:21.276Z,40.65
2018-12-16T04:41:50.432Z,34.40
2018-12-16T04:44:20.883Z,37.47
2018-12-16T04:46:50.021Z,41.60
2018-12-16T04:51:57.441Z,38.17
2018-12-16T04:57:05.640Z,44.97
2018-12-16T05:02:14.320Z,45.60
2018-12-16T05:04:43.528Z,38.87
2018-12-16T05:07:12.631Z,31.10
2018-12-16T05:09:41.711Z,32.83
2018-12-16T05:12:10.928Z,44.13
2018-12-16T05:14:40.032Z,40.27
2018-12-16T05:17:09.175Z,35.30
2018-12-16T05:19:38.356Z,47.40
2018-12-16T05:22:07.531Z,42.10
2018-12-16T05:27:15.740Z,34.80
2018-12-16T05:29:44.904Z,36.03
2018-12-16T05:32:14.056Z,37.87
2018-12-16T05:34:43.226Z,33.70
2018-12-16T05:37:12.372Z,31.13
2018-12-16T05:39:41.516Z,30.90
2018-12-16T05:42:10.520Z,25.17
2018-12-16T05:44:39.700Z,23.57
2018-12-16T05:47:08.891Z,22.43
2018-12-16T05:52:16.355Z,37.20
2018-12-16T05:57:24.958Z,28.13
2018-12-16T05:59:54.192Z,21.10
2018-12-16T06:05:02.433Z,18.57
2018-12-16T06:07:31.596Z,22.65
2018-12-16T06:12:40.775Z,18.80
2018-12-16T06:15:10.140Z,25.10
2018-12-16T06:20:18.986Z,19.77
2018-12-16T06:25:26.813Z,16.30
2018-12-16T06:27:55.885Z,18.42
2018-12-16T06:33:05.287Z,21.07
2018-12-16T06:35:34.509Z,28.60
2018-12-16T06:38:03.645Z,12.53
2018-12-16T06:40:32.747Z,16.52
2018-12-16T06:43:01.875Z,16.45
2018-12-16T06:45:31.023Z,16.17
2018-12-16T06:48:00.127Z,17.20
2018-12-16T06:53:08.483Z,17.23
2018-12-16T06:55:43.268Z,20.47
2018-12-16T07:00:47.753Z,18.90
2018-12-16T07:08:17.870Z,17.70
2018-12-16T07:10:48.047Z,16.85
2018-12-16T07:13:19.132Z,29.37
2018-12-16T07:15:48.210Z,26.57
2018-12-16T07:20:58.067Z,15.73
2018-12-16T07:23:27.269Z,20.10
2018-12-16T07:25:56.335Z,31.13
2018-12-16T07:28:25.458Z,12.27
2018-12-16T07:33:35.112Z,16.27
2018-12-16T07:36:04.360Z,15.60
2018-12-16T07:38:33.542Z,20.43
2018-12-16T07:41:02.607Z,15.60
2018-12-16T07:43:31.828Z,21.90
2018-12-16T07:48:40.541Z,13.57
2018-12-16T07:53:47.982Z,17.97
2018-12-16T07:56:19.154Z,15.88
2018-12-16T07:58:48.280Z,20.43
2018-12-16T08:03:58.455Z,17.60
2018-12-16T08:06:27.560Z,12.97
2018-12-16T08:08:56.687Z,16.40
2018-12-16T08:11:25.756Z,16.10
2018-12-16T08:13:54.929Z,15.60
2018-12-16T08:16:24.059Z,16.52
2018-12-16T08:18:53.200Z,13.35
2018-12-16T08:21:22.313Z,23.13
2018-12-16T08:23:51.424Z,27.70
2018-12-16T08:28:59.825Z,15.33
2018-12-16T08:31:28.999Z,17.70
2018-12-16T08:33:58.120Z,18.57
2018-12-16T08:36:27.209Z,19.43
2018-12-16T08:38:56.303Z,14.40
2018-12-16T08:41:25.503Z,19.53
2018-12-16T08:43:54.693Z,21.95
2018-12-16T08:46:23.792Z,38.83
2018-12-16T08:48:53.959Z,27.93
2018-12-16T08:51:23.041Z,27.60
2018-12-16T08:53:52.256Z,19.73
2018-12-16T08:56:21.351Z,21.57
2018-12-16T08:58:50.469Z,17.53
2018-12-16T09:03:59.151Z,21.47
2018-12-16T09:06:28.380Z,18.53
2018-12-16T09:08:58.145Z,21.55
2018-12-16T09:11:27.303Z,23.80
2018-12-16T09:13:58.343Z,17.67
2018-12-16T09:16:27.495Z,17.70
2018-12-16T09:18:57.200Z,11.33
2018-12-16T09:21:26.497Z,21.50
2018-12-16T09:23:55.533Z,21.85
2018-12-16T09:26:24.627Z,35.28
2018-12-16T09:28:53.909Z,29.63
2018-12-16T09:31:23.079Z,26.03
2018-12-16T09:36:31.504Z,20.10
2018-12-16T09:39:00.631Z,28.25
2018-12-16T09:41:29.869Z,25.60
2018-12-16T09:43:59.113Z,18.17
2018-12-16T09:46:30.034Z,14.23
2018-12-16T09:48:59.285Z,18.82
2018-12-16T09:51:28.428Z,15.47
2018-12-16T09:53:57.484Z,20.40
2018-12-16T09:59:04.923Z,51.83
2018-12-16T10:01:34.077Z,21.33
2018-12-16T10:04:03.177Z,15.40
2018-12-16T10:09:11.399Z,17.13
2018-12-16T10:11:40.571Z,13.73
2018-12-16T10:14:09.713Z,14.60
2018-12-16T10:16:38.931Z,16.67
2018-12-16T10:19:08.068Z,15.80
2018-12-16T10:21:37.260Z,14.18
2018-12-16T10:24:06.353Z,16.37
2018-12-16T10:26:35.772Z,16.80
2018-12-16T10:29:04.948Z,21.13
2018-12-16T10:31:34.166Z,21.83
2018-12-16T10:34:03.368Z,16.33
2018-12-16T10:36:32.644Z,19.47
2018-12-16T10:39:01.971Z,17.10
2018-12-16T10:41:31.256Z,21.13
2018-12-16T10:46:39.746Z,19.53
2018-12-16T10:51:47.071Z,19.87
2018-12-16T10:54:16.180Z,24.20
2018-12-16T10:56:45.419Z,23.87
2018-12-16T10:59:14.544Z,25.88
2018-12-16T11:01:44.961Z,22.65
2018-12-16T11:04:14.071Z,18.10
2018-12-16T11:06:43.208Z,18.97
2018-12-16T11:09:12.332Z,15.90
2018-12-16T11:11:41.427Z,20.40
2018-12-16T11:16:48.784Z,20.50
2018-12-16T11:19:17.995Z,19.47
2018-12-16T11:24:26.174Z,39.80
2018-12-16T11:26:57.281Z,26.10
2018-12-16T11:32:05.477Z,23.00
2018-12-16T11:34:34.680Z,30.10
2018-12-16T11:37:03.964Z,22.43
2018-12-16T11:39:34.606Z,21.80
2018-12-16T11:42:03.928Z,21.53
2018-12-16T11:44:33.153Z,20.77
2018-12-16T11:47:02.236Z,24.97
2018-12-16T11:49:31.428Z,25.23
2018-12-16T11:52:00.884Z,18.43
2018-12-16T11:57:08.823Z,51.37
2018-12-16T11:59:37.940Z,18.57
2018-12-16T12:02:07.082Z,19.85
2018-12-16T12:07:15.331Z,17.93
2018-12-16T12:12:23.035Z,19.90
2018-12-16T12:14:52.200Z,19.48
2018-12-16T12:17:21.363Z,24.03
2018-12-16T12:19:50.622Z,20.20
2018-12-16T12:25:00.553Z,22.67
2018-12-16T12:30:11.829Z,26.83
2018-12-16T12:32:40.901Z,23.73
2018-12-16T12:35:10.383Z,21.17
2018-12-16T12:37:39.531Z,24.37
2018-12-16T12:40:08.948Z,24.00
2018-12-16T12:42:38.028Z,26.05
2018-12-16T12:45:07.583Z,22.40
2018-12-16T12:47:36.707Z,84.33
2018-12-16T12:50:07.544Z,93.23
2018-12-16T12:52:36.643Z,27.63
2018-12-16T12:55:07.574Z,26.13
2018-12-16T12:57:36.704Z,27.53
2018-12-16T13:02:49.518Z,26.30
2018-12-16T13:05:18.568Z,29.00
2018-12-16T13:07:47.756Z,23.23
2018-12-16T13:12:58.495Z,32.93
2018-12-16T13:15:27.595Z,29.93
2018-12-16T13:17:56.704Z,34.95
2018-12-16T13:20:25.860Z,37.27
2018-12-16T13:22:54.992Z,22.85
2018-12-16T13:26:32.156Z,32.70
2018-12-16T13:29:01.267Z,21.73
2018-12-16T13:31:30.352Z,29.33
2018-12-16T13:36:38.897Z,30.77
2018-12-16T13:39:08.532Z,26.23
2018-12-16T13:41:37.619Z,31.07
2018-12-16T13:44:06.760Z,30.17
2018-12-16T13:49:15.270Z,26.57
2018-12-16T13:54:24.148Z,32.23
2018-12-16T13:56:53.372Z,31.97
2018-12-16T13:59:22.537Z,25.68
2018-12-16T14:01:51.705Z,28.77
2018-12-16T14:04:21.260Z,24.00
2018-12-16T14:06:51.238Z,29.12
2018-12-16T14:09:21.264Z,25.03
2018-12-16T14:11:51.364Z,20.65
2018-12-16T14:14:21.300Z,29.55
2018-12-16T14:16:51.440Z,46.25
2018-12-16T14:21:59.963Z,23.07
2018-12-16T14:24:29.304Z,27.50
2018-12-16T14:29:37.611Z,19.83
2018-12-16T14:32:06.843Z,22.70
2018-12-16T14:34:35.971Z,27.33
2018-12-16T14:37:05.160Z,23.50
2018-12-16T14:42:13.423Z,32.07
2018-12-16T14:44:42.542Z,27.00
2018-12-16T14:49:50.876Z,24.77
2018-12-16T14:52:19.977Z,20.47
2018-12-16T14:54:48.986Z,28.03
2018-12-16T14:57:18.047Z,28.73
2018-12-16T14:59:47.208Z,27.43
2018-12-16T15:02:16.392Z,27.40
2018-12-16T15:04:45.513Z,36.73
2018-12-16T15:07:14.635Z,29.63
2018-12-16T15:09:43.868Z,33.97
2018-12-16T15:12:12.940Z,27.40
2018-12-16T15:14:43.303Z,23.10
2018-12-16T15:17:12.505Z,31.40
2018-12-16T15:19:41.670Z,25.87
2018-12-16T15:22:11.373Z,35.13
2018-12-16T15:24:40.519Z,22.60
2018-12-16T15:27:09.632Z,37.93
2018-12-16T15:29:38.747Z,20.67
2018-12-16T15:32:07.771Z,30.40
2018-12-16T15:34:36.945Z,35.17
2018-12-16T15:39:45.135Z,31.00
2018-12-16T15:44:52.935Z,33.63
2018-12-16T15:47:22.143Z,30.37
2018-12-16T15:52:32.068Z,47.00
2018-12-16T15:55:01.107Z,60.67
2018-12-16T15:57:30.212Z,43.85
2018-12-16T15:59:59.297Z,34.60
2018-12-16T16:05:07.205Z,31.60
2018-12-16T16:07:36.398Z,23.10
2018-12-16T16:10:07.574Z,48.90
2018-12-16T16:12:36.712Z,34.70
2018-12-16T16:15:07.108Z,18.90
2018-12-16T16:17:36.289Z,21.68
2018-12-16T16:20:06.111Z,24.17
2018-12-16T16:22:35.259Z,38.80
2018-12-16T16:27:43.484Z,24.10
2018-12-16T16:30:12.676Z,30.00
2018-12-16T16:32:41.774Z,27.50
2018-12-16T16:35:11.015Z,16.40
2018-12-16T16:40:19.056Z,40.83
2018-12-16T16:45:27.192Z,39.57
2018-12-16T16:47:56.267Z,22.10
2018-12-16T16:50:25.372Z,43.70
2018-12-16T16:52:54.536Z,27.93
2018-12-16T16:55:24.516Z,22.80
2018-12-16T16:57:53.924Z,21.83
2018-12-16T17:03:02.420Z,28.53
2018-12-16T17:05:31.596Z,25.30
2018-12-16T17:08:00.696Z,26.57
2018-12-16T17:10:29.820Z,19.80
2018-12-16T17:15:38.344Z,15.30
2018-12-16T17:18:07.446Z,28.53
2018-12-16T17:23:15.792Z,22.43
2018-12-16T17:25:48.311Z,23.40
2018-12-16T17:30:55.231Z,26.33
2018-12-16T17:33:24.283Z,22.10
2018-12-16T17:35:53.435Z,28.60
2018-12-16T17:38:23.253Z,30.62
2018-12-16T17:40:54.096Z,25.80
2018-12-16T17:43:23.284Z,19.17
2018-12-16T17:45:53.467Z,17.27
2018-12-16T17:48:23.275Z,19.80
2018-12-16T17:53:31.128Z,31.37
2018-12-16T17:56:00.579Z,16.90
2018-12-16T18:01:09.194Z,13.47
2018-12-16T18:03:38.262Z,17.05
2018-12-16T18:06:07.456Z,17.60
2018-12-16T18:08:36.603Z,16.93
2018-12-16T18:11:05.852Z,26.47
2018-12-16T18:13:35.037Z,19.10
2018-12-16T18:16:04.217Z,31.40
2018-12-16T18:18:33.323Z,19.40
2018-12-16T18:21:02.537Z,86.67
2018-12-16T18:23:31.676Z,15.53
2018-12-16T18:26:00.744Z,15.67
2018-12-16T18:28:29.947Z,20.53
2018-12-16T18:30:59.028Z,14.53
2018-12-16T18:33:28.568Z,20.17
2018-12-16T18:35:57.696Z,18.25
2018-12-16T18:41:06.511Z,21.70
2018-12-16T18:43:35.930Z,24.92
2018-12-16T18:46:05.091Z,33.50
2018-12-16T18:48:34.172Z,20.47
2018-12-16T18:51:03.243Z,17.73
2018-12-16T18:53:32.315Z,14.23
2018-12-16T18:56:01.362Z,20.23
2018-12-16T18:58:30.428Z,19.40
2018-12-16T19:03:38.580Z,28.93
2018-12-16T19:06:08.785Z,22.53
2018-12-16T19:08:37.858Z,26.02
2018-12-16T19:11:06.893Z,26.37
2018-12-16T19:13:37.277Z,31.05
2018-12-16T19:16:06.371Z,34.37
2018-12-16T19:18:36.066Z,34.00
2018-12-16T19:21:05.992Z,54.77
2018-12-16T19:23:35.234Z,42.93
2018-12-16T19:26:04.408Z,30.07
2018-12-16T19:28:33.626Z,34.90
2018-12-16T19:31:02.680Z,43.40
2018-12-16T19:36:10.865Z,23.60
2018-12-16T19:38:40.042Z,24.77
2018-12-16T19:43:47.787Z,21.77
2018-12-16T19:48:56.981Z,34.43
2018-12-16T19:51:26.184Z,18.23
2018-12-16T19:53:55.260Z,18.40
2018-12-16T19:56:25.895Z,24.00
2018-12-16T19:58:55.199Z,21.33
2018-12-16T20:01:24.644Z,18.77
2018-12-16T20:06:47.724Z,15.47
2018-12-16T20:09:17.876Z,24.90
2018-12-16T20:11:47.024Z,23.60
2018-12-16T20:14:16.146Z,14.70
2018-12-16T20:16:45.379Z,18.00
2018-12-16T20:19:14.437Z,24.63
2018-12-16T20:21:43.632Z,20.17
2018-12-16T20:24:12.736Z,23.42
2018-12-16T20:26:41.767Z,24.53
2018-12-16T20:29:11.041Z,22.50
2018-12-16T20:31:40.404Z,18.40
2018-12-16T20:36:48.043Z,14.70
2018-12-16T20:39:18.031Z,15.95
2018-12-16T20:41:47.048Z,18.67
2018-12-16T20:44:17.311Z,18.17
2018-12-16T20:46:46.376Z,19.53
2018-12-16T20:49:15.403Z,22.43
2018-12-16T20:51:44.459Z,16.10
2018-12-16T20:56:51.730Z,15.50
2018-12-16T20:59:20.810Z,17.10
2018-12-16T21:04:29.080Z,17.30
2018-12-16T21:06:58.204Z,24.87
2018-12-16T21:09:28.430Z,17.95
2018-12-16T21:12:04.098Z,24.03
2018-12-16T21:14:38.458Z,21.50
2018-12-16T21:17:12.844Z,21.47
2018-12-16T21:19:42.077Z,17.75
2018-12-16T21:22:12.140Z,16.93
2018-12-16T21:24:41.364Z,16.35
2018-12-16T21:27:10.721Z,19.48
2018-12-16T21:29:39.717Z,14.10
2018-12-16T21:32:08.710Z,14.10
2018-12-16T21:34:37.776Z,16.13
2018-12-16T21:37:06.886Z,14.40
2018-12-16T21:39:36.001Z,18.80
2018-12-16T21:42:05.165Z,20.55
2018-12-16T21:44:34.189Z,16.60
2018-12-16T21:47:04.245Z,24.80
2018-12-16T21:49:33.356Z,21.30
2018-12-16T21:54:41.527Z,18.27
2018-12-16T21:59:49.959Z,16.63
2018-12-16T22:02:19.103Z,15.50
2018-12-16T22:04:48.175Z,20.23
2018-12-16T22:07:17.904Z,12.80
2018-12-16T22:12:25.692Z,12.20
2018-12-16T22:14:55.801Z,16.77
2018-12-16T22:17:27.143Z,16.33
2018-12-16T22:19:56.348Z,12.43
2018-12-16T22:22:26.282Z,10.78
2018-12-16T22:24:56.219Z,14.38
2018-12-16T22:27:26.342Z,13.24
2018-12-16T22:29:56.284Z,12.93
2018-12-16T22:32:26.363Z,20.40
2018-12-16T22:34:56.280Z,7.25
2018-12-16T22:37:26.600Z,10.72
2018-12-16T22:39:57.785Z,11.63
2018-12-16T22:42:26.793Z,18.23
2018-12-16T22:44:57.030Z,14.03
2018-12-16T22:50:07.312Z,19.37
2018-12-16T22:52:36.287Z,15.30
2018-12-16T22:55:06.299Z,13.80
2018-12-16T22:57:36.450Z,15.93
2018-12-16T23:00:09.920Z,15.37
2018-12-16T23:02:39.204Z,18.23
2018-12-16T23:05:08.548Z,15.70
2018-12-16T23:10:16.907Z,16.63
2018-12-16T23:12:46.127Z,17.00
2018-12-16T23:15:15.228Z,15.20
2018-12-16T23:17:44.476Z,13.60
2018-12-16T23:20:19.756Z,16.32
2018-12-16T23:22:49.365Z,21.43
2018-12-16T23:25:18.547Z,13.73
2018-12-16T23:27:53.972Z,10.58
2018-12-16T23:30:19.980Z,13.03
2018-12-16T23:32:49.060Z,12.87
2018-12-16T23:35:18.087Z,17.10
2018-12-16T23:37:47.309Z,17.77
2018-12-16T23:40:16.509Z,17.63
2018-12-16T23:42:45.610Z,14.10
2018-12-16T23:45:14.703Z,15.37
2018-12-16T23:50:22.867Z,11.03
2018-12-16T23:52:51.858Z,16.40
2018-12-16T23:55:21.100Z,12.95
2018-12-16T23:57:50.184Z,13.13
